sensor_id;sensor_type;location;lat;lon;timestamp;P1;durP1;ratioP1;P2;durP2;ratioP2
14760;SDS011;7472;45.396;5.272;2022-08-30T00:02:43;4.70;;;2.33;;
14760;SDS011;7472;45.396;5.272;2022-08-30T00:05:11;2.83;;;1.77;;
14760;SDS011;7472;45.396;5.272;2022-08-30T00:07:38;3.83;;;1.77;;
14760;SDS011;7472;45.396;5.272;2022-08-30T00:10:06;6.57;;;2.10;;
14760;SDS011;7472;45.396;5.272;2022-08-30T00:12:34;3.80;;;1.70;;
14760;SDS011;7472;45.396;5.272;2022-08-30T00:15:02;2.42;;;1.95;;
14760;SDS011;7472;45.396;5.272;2022-08-30T00:17:31;2.92;;;1.65;;
14760;SDS011;7472;45.396;5.272;2022-08-30T00:20:00;5.18;;;2.60;;
14760;SDS011;7472;45.396;5.272;2022-08-30T00:22:27;7.07;;;2.58;;
14760;SDS011;7472;45.396;5.272;2022-08-30T00:24:57;3.90;;;2.05;;
14760;SDS011;7472;45.396;5.272;2022-08-30T00:27:25;5.30;;;2.13;;
14760;SDS011;7472;45.396;5.272;2022-08-30T00:29:52;5.65;;;2.25;;
14760;SDS011;7472;45.396;5.272;2022-08-30T00:32:19;3.63;;;2.47;;
14760;SDS011;7472;45.396;5.272;2022-08-30T00:34:47;5.03;;;2.60;;
14760;SDS011;7472;45.396;5.272;2022-08-30T00:37:16;5.22;;;1.80;;
14760;SDS011;7472;45.396;5.272;2022-08-30T00:39:43;3.85;;;2.65;;
14760;SDS011;7472;45.396;5.272;2022-08-30T00:42:11;3.05;;;1.70;;
14760;SDS011;7472;45.396;5.272;2022-08-30T00:44:39;6.25;;;2.72;;
14760;SDS011;7472;45.396;5.272;2022-08-30T00:47:06;5.88;;;2.00;;
14760;SDS011;7472;45.396;5.272;2022-08-30T00:49:34;3.00;;;1.75;;
14760;SDS011;7472;45.396;5.272;2022-08-30T00:52:02;3.45;;;2.10;;
14760;SDS011;7472;45.396;5.272;2022-08-30T00:54:31;3.47;;;1.70;;
14760;SDS011;7472;45.396;5.272;2022-08-30T00:57:00;3.38;;;2.00;;
14760;SDS011;7472;45.396;5.272;2022-08-30T00:59:28;3.67;;;2.45;;
14760;SDS011;7472;45.396;5.272;2022-08-30T01:01:55;4.10;;;2.10;;
14760;SDS011;7472;45.396;5.272;2022-08-30T01:04:23;4.60;;;2.28;;
14760;SDS011;7472;45.396;5.272;2022-08-30T01:06:51;5.00;;;1.80;;
14760;SDS011;7472;45.396;5.272;2022-08-30T01:09:19;3.63;;;2.50;;
14760;SDS011;7472;45.396;5.272;2022-08-30T01:11:48;4.30;;;2.30;;
14760;SDS011;7472;45.396;5.272;2022-08-30T01:14:15;2.53;;;1.98;;
14760;SDS011;7472;45.396;5.272;2022-08-30T01:16:45;3.67;;;1.92;;
14760;SDS011;7472;45.396;5.272;2022-08-30T01:19:15;4.95;;;2.08;;
14760;SDS011;7472;45.396;5.272;2022-08-30T01:21:48;5.25;;;2.45;;
14760;SDS011;7472;45.396;5.272;2022-08-30T01:24:18;5.10;;;2.35;;
14760;SDS011;7472;45.396;5.272;2022-08-30T01:26:45;4.63;;;2.30;;
14760;SDS011;7472;45.396;5.272;2022-08-30T01:29:14;5.13;;;2.30;;
14760;SDS011;7472;45.396;5.272;2022-08-30T01:31:43;7.70;;;2.25;;
14760;SDS011;7472;45.396;5.272;2022-08-30T01:34:10;2.38;;;2.08;;
14760;SDS011;7472;45.396;5.272;2022-08-30T01:36:38;3.30;;;2.33;;
14760;SDS011;7472;45.396;5.272;2022-08-30T01:39:06;4.63;;;2.00;;
14760;SDS011;7472;45.396;5.272;2022-08-30T01:41:36;3.75;;;2.30;;
14760;SDS011;7472;45.396;5.272;2022-08-30T01:44:05;2.63;;;2.40;;
14760;SDS011;7472;45.396;5.272;2022-08-30T01:46:33;2.13;;;1.90;;
14760;SDS011;7472;45.396;5.272;2022-08-30T01:49:02;4.80;;;2.50;;
14760;SDS011;7472;45.396;5.272;2022-08-30T01:51:31;6.85;;;2.70;;
14760;SDS011;7472;45.396;5.272;2022-08-30T01:53:59;4.75;;;2.35;;
14760;SDS011;7472;45.396;5.272;2022-08-30T01:56:27;4.78;;;2.60;;
14760;SDS011;7472;45.396;5.272;2022-08-30T01:58:56;3.05;;;2.78;;
14760;SDS011;7472;45.396;5.272;2022-08-30T02:01:24;3.47;;;2.97;;
14760;SDS011;7472;45.396;5.272;2022-08-30T02:03:53;3.15;;;2.53;;
14760;SDS011;7472;45.396;5.272;2022-08-30T02:06:20;3.38;;;3.08;;
14760;SDS011;7472;45.396;5.272;2022-08-30T02:08:48;3.95;;;2.88;;
14760;SDS011;7472;45.396;5.272;2022-08-30T02:11:15;4.60;;;3.05;;
14760;SDS011;7472;45.396;5.272;2022-08-30T02:13:44;3.17;;;2.88;;
14760;SDS011;7472;45.396;5.272;2022-08-30T02:16:13;2.72;;;2.50;;
14760;SDS011;7472;45.396;5.272;2022-08-30T02:18:41;2.97;;;2.60;;
14760;SDS011;7472;45.396;5.272;2022-08-30T02:21:08;4.72;;;2.95;;
14760;SDS011;7472;45.396;5.272;2022-08-30T02:23:36;6.38;;;3.25;;
14760;SDS011;7472;45.396;5.272;2022-08-30T02:26:03;10.38;;;3.92;;
14760;SDS011;7472;45.396;5.272;2022-08-30T02:28:31;5.28;;;3.05;;
14760;SDS011;7472;45.396;5.272;2022-08-30T02:30:58;3.35;;;2.53;;
14760;SDS011;7472;45.396;5.272;2022-08-30T02:33:27;4.45;;;2.65;;
14760;SDS011;7472;45.396;5.272;2022-08-30T02:35:55;3.25;;;2.90;;
14760;SDS011;7472;45.396;5.272;2022-08-30T02:38:23;4.45;;;3.22;;
14760;SDS011;7472;45.396;5.272;2022-08-30T02:40:51;3.97;;;3.28;;
14760;SDS011;7472;45.396;5.272;2022-08-30T02:43:18;3.17;;;2.88;;
14760;SDS011;7472;45.396;5.272;2022-08-30T02:45:46;3.67;;;3.00;;
14760;SDS011;7472;45.396;5.272;2022-08-30T02:48:13;4.43;;;3.15;;
14760;SDS011;7472;45.396;5.272;2022-08-30T02:50:42;4.43;;;3.42;;
14760;SDS011;7472;45.396;5.272;2022-08-30T02:53:10;5.32;;;2.90;;
14760;SDS011;7472;45.396;5.272;2022-08-30T02:55:38;6.90;;;3.17;;
14760;SDS011;7472;45.396;5.272;2022-08-30T02:58:05;4.25;;;3.25;;
14760;SDS011;7472;45.396;5.272;2022-08-30T03:00:33;3.20;;;2.92;;
14760;SDS011;7472;45.396;5.272;2022-08-30T03:03:00;4.43;;;3.10;;
14760;SDS011;7472;45.396;5.272;2022-08-30T03:05:28;3.55;;;3.25;;
14760;SDS011;7472;45.396;5.272;2022-08-30T03:07:58;5.50;;;3.10;;
14760;SDS011;7472;45.396;5.272;2022-08-30T03:10:26;6.95;;;3.45;;
14760;SDS011;7472;45.396;5.272;2022-08-30T03:12:54;4.30;;;2.88;;
14760;SDS011;7472;45.396;5.272;2022-08-30T03:15:21;5.55;;;2.90;;
14760;SDS011;7472;45.396;5.272;2022-08-30T03:17:50;5.43;;;3.30;;
14760;SDS011;7472;45.396;5.272;2022-08-30T03:20:18;8.30;;;3.63;;
14760;SDS011;7472;45.396;5.272;2022-08-30T03:22:45;4.43;;;2.63;;
14760;SDS011;7472;45.396;5.272;2022-08-30T03:25:14;4.50;;;3.15;;
14760;SDS011;7472;45.396;5.272;2022-08-30T03:27:42;3.88;;;2.83;;
14760;SDS011;7472;45.396;5.272;2022-08-30T03:30:10;5.65;;;2.83;;
14760;SDS011;7472;45.396;5.272;2022-08-30T03:32:37;3.28;;;2.50;;
14760;SDS011;7472;45.396;5.272;2022-08-30T03:35:05;3.28;;;2.50;;
14760;SDS011;7472;45.396;5.272;2022-08-30T03:37:33;4.20;;;2.53;;
14760;SDS011;7472;45.396;5.272;2022-08-30T03:40:01;6.95;;;2.55;;
14760;SDS011;7472;45.396;5.272;2022-08-30T03:42:29;3.50;;;2.45;;
14760;SDS011;7472;45.396;5.272;2022-08-30T03:44:57;3.22;;;2.85;;
14760;SDS011;7472;45.396;5.272;2022-08-30T03:47:26;3.03;;;2.72;;
14760;SDS011;7472;45.396;5.272;2022-08-30T03:49:54;3.63;;;2.88;;
14760;SDS011;7472;45.396;5.272;2022-08-30T03:52:21;3.63;;;3.22;;
14760;SDS011;7472;45.396;5.272;2022-08-30T03:54:48;3.50;;;2.80;;
14760;SDS011;7472;45.396;5.272;2022-08-30T03:57:16;6.55;;;3.58;;
14760;SDS011;7472;45.396;5.272;2022-08-30T03:59:44;3.65;;;2.88;;
14760;SDS011;7472;45.396;5.272;2022-08-30T04:02:12;3.50;;;3.20;;
14760;SDS011;7472;45.396;5.272;2022-08-30T04:04:39;3.92;;;3.22;;
14760;SDS011;7472;45.396;5.272;2022-08-30T04:07:06;7.65;;;3.55;;
14760;SDS011;7472;45.396;5.272;2022-08-30T04:09:34;6.50;;;3.63;;
14760;SDS011;7472;45.396;5.272;2022-08-30T04:12:02;3.25;;;2.95;;
14760;SDS011;7472;45.396;5.272;2022-08-30T04:14:29;5.53;;;3.42;;
14760;SDS011;7472;45.396;5.272;2022-08-30T04:16:58;5.25;;;3.30;;
14760;SDS011;7472;45.396;5.272;2022-08-30T04:19:25;4.13;;;3.10;;
14760;SDS011;7472;45.396;5.272;2022-08-30T04:21:53;4.88;;;3.35;;
14760;SDS011;7472;45.396;5.272;2022-08-30T04:24:21;4.25;;;3.67;;
14760;SDS011;7472;45.396;5.272;2022-08-30T04:26:48;6.97;;;3.40;;
14760;SDS011;7472;45.396;5.272;2022-08-30T04:29:16;4.85;;;4.32;;
14760;SDS011;7472;45.396;5.272;2022-08-30T04:31:43;6.93;;;4.15;;
14760;SDS011;7472;45.396;5.272;2022-08-30T04:34:12;5.97;;;3.92;;
14760;SDS011;7472;45.396;5.272;2022-08-30T04:36:40;5.32;;;4.72;;
14760;SDS011;7472;45.396;5.272;2022-08-30T04:39:07;5.25;;;4.15;;
14760;SDS011;7472;45.396;5.272;2022-08-30T04:41:35;6.60;;;5.13;;
14760;SDS011;7472;45.396;5.272;2022-08-30T04:44:04;4.88;;;4.13;;
14760;SDS011;7472;45.396;5.272;2022-08-30T04:46:32;4.63;;;4.15;;
14760;SDS011;7472;45.396;5.272;2022-08-30T04:49:00;8.25;;;5.13;;
14760;SDS011;7472;45.396;5.272;2022-08-30T04:51:28;7.78;;;4.97;;
14760;SDS011;7472;45.396;5.272;2022-08-30T04:53:56;6.10;;;5.20;;
14760;SDS011;7472;45.396;5.272;2022-08-30T04:56:23;6.97;;;5.10;;
14760;SDS011;7472;45.396;5.272;2022-08-30T04:58:52;5.30;;;4.88;;
14760;SDS011;7472;45.396;5.272;2022-08-30T05:01:20;5.40;;;4.60;;
14760;SDS011;7472;45.396;5.272;2022-08-30T05:03:48;7.18;;;5.20;;
14760;SDS011;7472;45.396;5.272;2022-08-30T05:06:16;5.97;;;5.10;;
14760;SDS011;7472;45.396;5.272;2022-08-30T05:08:45;8.65;;;5.60;;
14760;SDS011;7472;45.396;5.272;2022-08-30T05:11:13;5.90;;;5.18;;
14760;SDS011;7472;45.396;5.272;2022-08-30T05:13:41;4.72;;;4.32;;
14760;SDS011;7472;45.396;5.272;2022-08-30T05:16:09;5.97;;;5.15;;
14760;SDS011;7472;45.396;5.272;2022-08-30T05:18:41;12.20;;;5.70;;
14760;SDS011;7472;45.396;5.272;2022-08-30T05:21:10;5.78;;;4.95;;
14760;SDS011;7472;45.396;5.272;2022-08-30T05:23:38;5.82;;;5.03;;
14760;SDS011;7472;45.396;5.272;2022-08-30T05:26:08;10.77;;;5.22;;
14760;SDS011;7472;45.396;5.272;2022-08-30T05:28:36;6.97;;;4.95;;
14760;SDS011;7472;45.396;5.272;2022-08-30T05:31:10;6.10;;;5.20;;
14760;SDS011;7472;45.396;5.272;2022-08-30T05:33:38;6.50;;;5.78;;
14760;SDS011;7472;45.396;5.272;2022-08-30T05:36:06;5.80;;;5.22;;
14760;SDS011;7472;45.396;5.272;2022-08-30T05:38:33;11.45;;;5.85;;
14760;SDS011;7472;45.396;5.272;2022-08-30T05:41:01;6.10;;;5.50;;
14760;SDS011;7472;45.396;5.272;2022-08-30T05:43:30;9.68;;;6.10;;
14760;SDS011;7472;45.396;5.272;2022-08-30T05:45:58;12.07;;;5.95;;
14760;SDS011;7472;45.396;5.272;2022-08-30T05:48:26;6.25;;;5.57;;
14760;SDS011;7472;45.396;5.272;2022-08-30T05:51:00;5.50;;;4.97;;
14760;SDS011;7472;45.396;5.272;2022-08-30T05:53:28;6.38;;;4.95;;
14760;SDS011;7472;45.396;5.272;2022-08-30T05:55:55;8.02;;;4.82;;
14760;SDS011;7472;45.396;5.272;2022-08-30T05:58:23;5.22;;;4.70;;
14760;SDS011;7472;45.396;5.272;2022-08-30T06:00:51;5.30;;;4.05;;
14760;SDS011;7472;45.396;5.272;2022-08-30T06:03:19;7.15;;;5.00;;
14760;SDS011;7472;45.396;5.272;2022-08-30T06:05:46;6.15;;;4.72;;
14760;SDS011;7472;45.396;5.272;2022-08-30T06:08:13;6.13;;;4.22;;
14760;SDS011;7472;45.396;5.272;2022-08-30T06:10:41;4.43;;;3.00;;
14760;SDS011;7472;45.396;5.272;2022-08-30T06:13:08;5.22;;;3.20;;
14760;SDS011;7472;45.396;5.272;2022-08-30T06:15:36;4.25;;;3.35;;
14760;SDS011;7472;45.396;5.272;2022-08-30T06:18:05;4.45;;;3.05;;
14760;SDS011;7472;45.396;5.272;2022-08-30T06:20:32;8.00;;;4.32;;
14760;SDS011;7472;45.396;5.272;2022-08-30T06:23:00;8.50;;;4.38;;
14760;SDS011;7472;45.396;5.272;2022-08-30T06:25:27;4.20;;;3.60;;
14760;SDS011;7472;45.396;5.272;2022-08-30T06:27:54;3.60;;;3.30;;
14760;SDS011;7472;45.396;5.272;2022-08-30T06:30:22;3.65;;;3.25;;
14760;SDS011;7472;45.396;5.272;2022-08-30T06:32:49;6.05;;;3.40;;
14760;SDS011;7472;45.396;5.272;2022-08-30T06:35:18;3.85;;;3.45;;
14760;SDS011;7472;45.396;5.272;2022-08-30T06:37:45;4.47;;;3.20;;
14760;SDS011;7472;45.396;5.272;2022-08-30T06:40:13;3.92;;;2.92;;
14760;SDS011;7472;45.396;5.272;2022-08-30T06:42:42;6.35;;;3.72;;
14760;SDS011;7472;45.396;5.272;2022-08-30T06:45:09;6.68;;;4.03;;
14760;SDS011;7472;45.396;5.272;2022-08-30T06:47:37;7.30;;;3.67;;
14760;SDS011;7472;45.396;5.272;2022-08-30T06:50:05;4.32;;;3.63;;
14760;SDS011;7472;45.396;5.272;2022-08-30T06:52:35;5.70;;;3.85;;
14760;SDS011;7472;45.396;5.272;2022-08-30T06:55:02;5.18;;;3.95;;
14760;SDS011;7472;45.396;5.272;2022-08-30T06:57:30;9.45;;;3.90;;
14760;SDS011;7472;45.396;5.272;2022-08-30T06:59:57;4.18;;;3.85;;
14760;SDS011;7472;45.396;5.272;2022-08-30T07:02:26;4.88;;;4.25;;
14760;SDS011;7472;45.396;5.272;2022-08-30T07:04:54;3.90;;;3.58;;
14760;SDS011;7472;45.396;5.272;2022-08-30T07:07:21;4.93;;;3.55;;
14760;SDS011;7472;45.396;5.272;2022-08-30T07:09:50;3.90;;;3.60;;
14760;SDS011;7472;45.396;5.272;2022-08-30T07:12:17;4.32;;;3.50;;
14760;SDS011;7472;45.396;5.272;2022-08-30T07:14:45;6.55;;;3.90;;
14760;SDS011;7472;45.396;5.272;2022-08-30T07:17:13;4.78;;;3.70;;
14760;SDS011;7472;45.396;5.272;2022-08-30T07:19:58;6.20;;;3.55;;
14760;SDS011;7472;45.396;5.272;2022-08-30T07:22:25;5.78;;;4.30;;
14760;SDS011;7472;45.396;5.272;2022-08-30T07:24:54;5.20;;;3.35;;
14760;SDS011;7472;45.396;5.272;2022-08-30T07:27:22;8.90;;;3.28;;
14760;SDS011;7472;45.396;5.272;2022-08-30T07:29:49;5.10;;;3.20;;
14760;SDS011;7472;45.396;5.272;2022-08-30T07:32:16;7.63;;;3.35;;
14760;SDS011;7472;45.396;5.272;2022-08-30T07:34:44;5.10;;;3.50;;
14760;SDS011;7472;45.396;5.272;2022-08-30T07:37:11;5.13;;;2.85;;
14760;SDS011;7472;45.396;5.272;2022-08-30T07:39:39;5.05;;;2.75;;
14760;SDS011;7472;45.396;5.272;2022-08-30T07:42:07;5.35;;;2.60;;
14760;SDS011;7472;45.396;5.272;2022-08-30T07:44:35;3.63;;;2.45;;
14760;SDS011;7472;45.396;5.272;2022-08-30T07:47:02;6.78;;;2.70;;
14760;SDS011;7472;45.396;5.272;2022-08-30T07:49:30;4.57;;;2.78;;
14760;SDS011;7472;45.396;5.272;2022-08-30T07:51:57;6.32;;;3.00;;
14760;SDS011;7472;45.396;5.272;2022-08-30T07:54:24;6.13;;;2.90;;
14760;SDS011;7472;45.396;5.272;2022-08-30T07:56:52;7.65;;;2.83;;
14760;SDS011;7472;45.396;5.272;2022-08-30T07:59:21;5.50;;;2.88;;
14760;SDS011;7472;45.396;5.272;2022-08-30T08:01:49;3.53;;;2.35;;
14760;SDS011;7472;45.396;5.272;2022-08-30T08:04:16;2.55;;;2.33;;
14760;SDS011;7472;45.396;5.272;2022-08-30T08:06:44;3.67;;;2.40;;
14760;SDS011;7472;45.396;5.272;2022-08-30T08:09:11;6.32;;;2.22;;
14760;SDS011;7472;45.396;5.272;2022-08-30T08:11:39;3.67;;;2.30;;
14760;SDS011;7472;45.396;5.272;2022-08-30T08:14:07;3.53;;;2.55;;
14760;SDS011;7472;45.396;5.272;2022-08-30T08:16:36;3.72;;;2.33;;
14760;SDS011;7472;45.396;5.272;2022-08-30T08:19:04;2.50;;;2.30;;
14760;SDS011;7472;45.396;5.272;2022-08-30T08:21:33;4.18;;;2.17;;
14760;SDS011;7472;45.396;5.272;2022-08-30T08:24:01;2.65;;;2.10;;
14760;SDS011;7472;45.396;5.272;2022-08-30T08:26:28;2.85;;;2.20;;
14760;SDS011;7472;45.396;5.272;2022-08-30T08:28:56;2.08;;;1.88;;
14760;SDS011;7472;45.396;5.272;2022-08-30T08:31:24;3.70;;;2.13;;
14760;SDS011;7472;45.396;5.272;2022-08-30T08:33:53;4.30;;;2.35;;
14760;SDS011;7472;45.396;5.272;2022-08-30T08:36:22;3.35;;;1.80;;
14760;SDS011;7472;45.396;5.272;2022-08-30T08:38:50;5.45;;;2.22;;
14760;SDS011;7472;45.396;5.272;2022-08-30T08:41:22;4.40;;;2.22;;
14760;SDS011;7472;45.396;5.272;2022-08-30T08:43:53;5.75;;;2.70;;
14760;SDS011;7472;45.396;5.272;2022-08-30T08:46:21;3.45;;;2.17;;
14760;SDS011;7472;45.396;5.272;2022-08-30T08:48:53;3.72;;;2.13;;
14760;SDS011;7472;45.396;5.272;2022-08-30T08:51:24;3.85;;;2.05;;
14760;SDS011;7472;45.396;5.272;2022-08-30T08:54:10;6.82;;;1.95;;
14760;SDS011;7472;45.396;5.272;2022-08-30T08:56:38;3.20;;;1.60;;
14760;SDS011;7472;45.396;5.272;2022-08-30T08:59:07;3.90;;;1.88;;
14760;SDS011;7472;45.396;5.272;2022-08-30T09:01:35;3.72;;;1.77;;
14760;SDS011;7472;45.396;5.272;2022-08-30T09:04:05;4.10;;;1.92;;
14760;SDS011;7472;45.396;5.272;2022-08-30T09:06:41;2.50;;;1.45;;
14760;SDS011;7472;45.396;5.272;2022-08-30T09:09:12;2.65;;;1.83;;
14760;SDS011;7472;45.396;5.272;2022-08-30T09:11:39;4.55;;;1.60;;
14760;SDS011;7472;45.396;5.272;2022-08-30T09:14:09;3.58;;;1.70;;
14760;SDS011;7472;45.396;5.272;2022-08-30T09:16:45;3.17;;;1.80;;
14760;SDS011;7472;45.396;5.272;2022-08-30T09:19:26;4.18;;;1.80;;
14760;SDS011;7472;45.396;5.272;2022-08-30T09:21:56;3.53;;;1.88;;
14760;SDS011;7472;45.396;5.272;2022-08-30T09:24:24;3.85;;;1.98;;
14760;SDS011;7472;45.396;5.272;2022-08-30T09:26:52;3.58;;;1.80;;
14760;SDS011;7472;45.396;5.272;2022-08-30T09:29:19;4.68;;;1.58;;
14760;SDS011;7472;45.396;5.272;2022-08-30T09:31:47;2.58;;;1.20;;
14760;SDS011;7472;45.396;5.272;2022-08-30T09:34:18;5.32;;;1.90;;
14760;SDS011;7472;45.396;5.272;2022-08-30T09:36:47;1.98;;;1.52;;
14760;SDS011;7472;45.396;5.272;2022-08-30T09:39:27;2.22;;;1.73;;
14760;SDS011;7472;45.396;5.272;2022-08-30T09:42:09;2.42;;;2.00;;
14760;SDS011;7472;45.396;5.272;2022-08-30T09:44:37;2.95;;;2.03;;
14760;SDS011;7472;45.396;5.272;2022-08-30T09:47:05;3.08;;;1.90;;
14760;SDS011;7472;45.396;5.272;2022-08-30T09:49:43;3.47;;;1.80;;
14760;SDS011;7472;45.396;5.272;2022-08-30T09:52:27;3.78;;;1.60;;
14760;SDS011;7472;45.396;5.272;2022-08-30T09:57:45;4.00;;;1.80;;
14760;SDS011;7472;45.396;5.272;2022-08-30T10:00:17;4.47;;;1.95;;
14760;SDS011;7472;45.396;5.272;2022-08-30T10:02:55;2.08;;;1.48;;
14760;SDS011;7472;45.396;5.272;2022-08-30T10:05:27;2.00;;;1.77;;
14760;SDS011;7472;45.396;5.272;2022-08-30T10:07:58;5.55;;;1.90;;
14760;SDS011;7472;45.396;5.272;2022-08-30T10:10:29;2.38;;;1.75;;
14760;SDS011;7472;45.396;5.272;2022-08-30T10:13:09;3.78;;;1.85;;
14760;SDS011;7472;45.396;5.272;2022-08-30T10:15:42;3.35;;;1.95;;
14760;SDS011;7472;45.396;5.272;2022-08-30T10:18:15;3.50;;;2.20;;
14760;SDS011;7472;45.396;5.272;2022-08-30T10:20:55;3.40;;;1.80;;
14760;SDS011;7472;45.396;5.272;2022-08-30T10:23:26;2.70;;;1.85;;
14760;SDS011;7472;45.396;5.272;2022-08-30T10:25:55;2.33;;;1.50;;
14760;SDS011;7472;45.396;5.272;2022-08-30T10:28:27;3.40;;;1.80;;
14760;SDS011;7472;45.396;5.272;2022-08-30T10:30:56;3.03;;;1.75;;
14760;SDS011;7472;45.396;5.272;2022-08-30T10:33:27;3.22;;;2.00;;
14760;SDS011;7472;45.396;5.272;2022-08-30T10:35:59;1.80;;;1.67;;
14760;SDS011;7472;45.396;5.272;2022-08-30T10:38:34;4.57;;;2.13;;
14760;SDS011;7472;45.396;5.272;2022-08-30T10:41:05;5.63;;;2.25;;
14760;SDS011;7472;45.396;5.272;2022-08-30T10:43:43;3.45;;;2.00;;
14760;SDS011;7472;45.396;5.272;2022-08-30T10:46:13;5.15;;;2.03;;
14760;SDS011;7472;45.396;5.272;2022-08-30T10:48:42;2.65;;;1.98;;
14760;SDS011;7472;45.396;5.272;2022-08-30T10:51:13;4.30;;;1.95;;
14760;SDS011;7472;45.396;5.272;2022-08-30T10:53:42;3.53;;;2.35;;
14760;SDS011;7472;45.396;5.272;2022-08-30T10:56:11;4.15;;;2.58;;
14760;SDS011;7472;45.396;5.272;2022-08-30T10:58:41;3.63;;;2.22;;
14760;SDS011;7472;45.396;5.272;2022-08-30T11:04:14;4.38;;;2.55;;
14760;SDS011;7472;45.396;5.272;2022-08-30T11:06:50;2.53;;;2.15;;
14760;SDS011;7472;45.396;5.272;2022-08-30T11:09:24;2.10;;;1.90;;
14760;SDS011;7472;45.396;5.272;2022-08-30T11:12:00;3.90;;;2.10;;
14760;SDS011;7472;45.396;5.272;2022-08-30T11:14:38;4.28;;;2.08;;
14760;SDS011;7472;45.396;5.272;2022-08-30T11:17:06;3.10;;;1.88;;
14760;SDS011;7472;45.396;5.272;2022-08-30T11:19:46;3.17;;;2.70;;
14760;SDS011;7472;45.396;5.272;2022-08-30T11:22:16;3.67;;;2.90;;
14760;SDS011;7472;45.396;5.272;2022-08-30T11:25:02;4.43;;;2.75;;
14760;SDS011;7472;45.396;5.272;2022-08-30T11:27:40;4.75;;;3.17;;
14760;SDS011;7472;45.396;5.272;2022-08-30T11:32:59;6.28;;;2.42;;
14760;SDS011;7472;45.396;5.272;2022-08-30T11:35:40;3.45;;;1.95;;
14760;SDS011;7472;45.396;5.272;2022-08-30T11:38:12;3.63;;;2.17;;
14760;SDS011;7472;45.396;5.272;2022-08-30T11:40:45;5.95;;;2.17;;
14760;SDS011;7472;45.396;5.272;2022-08-30T11:46:12;3.67;;;2.45;;
14760;SDS011;7472;45.396;5.272;2022-08-30T11:48:43;3.03;;;2.25;;
14760;SDS011;7472;45.396;5.272;2022-08-30T11:51:29;4.18;;;2.50;;
14760;SDS011;7472;45.396;5.272;2022-08-30T11:53:59;5.28;;;2.65;;
14760;SDS011;7472;45.396;5.272;2022-08-30T11:56:31;9.00;;;3.20;;
14760;SDS011;7472;45.396;5.272;2022-08-30T11:59:00;3.97;;;3.38;;
14760;SDS011;7472;45.396;5.272;2022-08-30T12:01:31;6.53;;;3.67;;
14760;SDS011;7472;45.396;5.272;2022-08-30T12:04:02;6.28;;;4.00;;
14760;SDS011;7472;45.396;5.272;2022-08-30T12:06:48;8.07;;;4.30;;
14760;SDS011;7472;45.396;5.272;2022-08-30T12:12:02;5.82;;;4.32;;
14760;SDS011;7472;45.396;5.272;2022-08-30T12:14:40;8.25;;;4.80;;
14760;SDS011;7472;45.396;5.272;2022-08-30T12:17:17;6.68;;;4.35;;
14760;SDS011;7472;45.396;5.272;2022-08-30T12:20:05;7.28;;;5.75;;
14760;SDS011;7472;45.396;5.272;2022-08-30T12:22:37;5.78;;;5.10;;
14760;SDS011;7472;45.396;5.272;2022-08-30T12:25:12;5.65;;;4.63;;
14760;SDS011;7472;45.396;5.272;2022-08-30T12:27:40;6.95;;;4.50;;
14760;SDS011;7472;45.396;5.272;2022-08-30T12:30:08;7.47;;;4.75;;
14760;SDS011;7472;45.396;5.272;2022-08-30T12:32:41;6.88;;;4.72;;
14760;SDS011;7472;45.396;5.272;2022-08-30T12:35:18;8.23;;;5.00;;
14760;SDS011;7472;45.396;5.272;2022-08-30T12:37:54;8.38;;;4.25;;
14760;SDS011;7472;45.396;5.272;2022-08-30T12:40:22;6.88;;;5.47;;
14760;SDS011;7472;45.396;5.272;2022-08-30T12:42:51;6.35;;;4.38;;
14760;SDS011;7472;45.396;5.272;2022-08-30T12:45:19;6.45;;;4.75;;
14760;SDS011;7472;45.396;5.272;2022-08-30T12:47:47;4.85;;;4.45;;
14760;SDS011;7472;45.396;5.272;2022-08-30T12:50:20;6.75;;;4.70;;
14760;SDS011;7472;45.396;5.272;2022-08-30T12:52:54;7.72;;;4.35;;
14760;SDS011;7472;45.396;5.272;2022-08-30T12:55:23;5.47;;;4.88;;
14760;SDS011;7472;45.396;5.272;2022-08-30T12:57:54;10.40;;;5.07;;
14760;SDS011;7472;45.396;5.272;2022-08-30T13:00:23;6.03;;;5.13;;
14760;SDS011;7472;45.396;5.272;2022-08-30T13:02:51;4.85;;;4.43;;
14760;SDS011;7472;45.396;5.272;2022-08-30T13:05:28;5.10;;;4.40;;
14760;SDS011;7472;45.396;5.272;2022-08-30T13:08:06;10.20;;;5.00;;
14760;SDS011;7472;45.396;5.272;2022-08-30T13:10:34;7.05;;;5.10;;
14760;SDS011;7472;45.396;5.272;2022-08-30T13:13:03;5.32;;;4.60;;
14760;SDS011;7472;45.396;5.272;2022-08-30T13:15:31;5.38;;;4.88;;
14760;SDS011;7472;45.396;5.272;2022-08-30T13:18:10;4.90;;;4.18;;
14760;SDS011;7472;45.396;5.272;2022-08-30T13:20:41;5.63;;;3.35;;
14760;SDS011;7472;45.396;5.272;2022-08-30T13:23:09;4.22;;;2.92;;
14760;SDS011;7472;45.396;5.272;2022-08-30T13:25:37;3.45;;;2.25;;
14760;SDS011;7472;45.396;5.272;2022-08-30T13:28:05;3.38;;;2.15;;
14760;SDS011;7472;45.396;5.272;2022-08-30T13:30:33;3.22;;;2.15;;
14760;SDS011;7472;45.396;5.272;2022-08-30T13:33:00;4.03;;;3.00;;
14760;SDS011;7472;45.396;5.272;2022-08-30T13:35:28;6.38;;;3.17;;
14760;SDS011;7472;45.396;5.272;2022-08-30T13:37:57;6.15;;;2.78;;
14760;SDS011;7472;45.396;5.272;2022-08-30T13:40:26;6.15;;;4.97;;
14760;SDS011;7472;45.396;5.272;2022-08-30T13:42:53;6.53;;;5.25;;
14760;SDS011;7472;45.396;5.272;2022-08-30T13:45:21;5.68;;;5.18;;
14760;SDS011;7472;45.396;5.272;2022-08-30T13:47:48;5.63;;;4.97;;
14760;SDS011;7472;45.396;5.272;2022-08-30T13:50:16;5.05;;;4.10;;
14760;SDS011;7472;45.396;5.272;2022-08-30T13:52:44;5.07;;;4.20;;
14760;SDS011;7472;45.396;5.272;2022-08-30T13:55:13;6.63;;;4.57;;
14760;SDS011;7472;45.396;5.272;2022-08-30T13:57:40;4.53;;;4.13;;
14760;SDS011;7472;45.396;5.272;2022-08-30T14:00:11;4.40;;;4.00;;
14760;SDS011;7472;45.396;5.272;2022-08-30T14:02:41;5.40;;;4.05;;
14760;SDS011;7472;45.396;5.272;2022-08-30T14:05:09;5.38;;;4.03;;
14760;SDS011;7472;45.396;5.272;2022-08-30T14:07:36;4.97;;;4.13;;
14760;SDS011;7472;45.396;5.272;2022-08-30T14:10:04;4.93;;;3.95;;
14760;SDS011;7472;45.396;5.272;2022-08-30T14:12:33;4.82;;;4.30;;
14760;SDS011;7472;45.396;5.272;2022-08-30T14:15:01;7.43;;;4.20;;
14760;SDS011;7472;45.396;5.272;2022-08-30T14:17:28;9.50;;;3.90;;
14760;SDS011;7472;45.396;5.272;2022-08-30T14:19:57;7.07;;;3.53;;
14760;SDS011;7472;45.396;5.272;2022-08-30T14:22:25;6.25;;;3.17;;
14760;SDS011;7472;45.396;5.272;2022-08-30T14:24:52;5.60;;;3.42;;
14760;SDS011;7472;45.396;5.272;2022-08-30T14:27:24;4.57;;;3.53;;
14760;SDS011;7472;45.396;5.272;2022-08-30T14:29:53;5.40;;;3.38;;
14760;SDS011;7472;45.396;5.272;2022-08-30T14:32:20;8.95;;;3.75;;
14760;SDS011;7472;45.396;5.272;2022-08-30T14:34:48;6.03;;;2.88;;
14760;SDS011;7472;45.396;5.272;2022-08-30T14:37:15;9.07;;;3.17;;
14760;SDS011;7472;45.396;5.272;2022-08-30T14:39:43;5.93;;;3.92;;
14760;SDS011;7472;45.396;5.272;2022-08-30T14:42:10;10.70;;;3.55;;
14760;SDS011;7472;45.396;5.272;2022-08-30T14:44:38;4.25;;;3.10;;
14760;SDS011;7472;45.396;5.272;2022-08-30T14:50:10;6.72;;;3.35;;
14760;SDS011;7472;45.396;5.272;2022-08-30T14:52:38;7.88;;;3.47;;
14760;SDS011;7472;45.396;5.272;2022-08-30T14:55:07;7.90;;;3.53;;
14760;SDS011;7472;45.396;5.272;2022-08-30T14:57:35;8.00;;;3.50;;
14760;SDS011;7472;45.396;5.272;2022-08-30T15:00:05;9.13;;;3.42;;
14760;SDS011;7472;45.396;5.272;2022-08-30T15:02:33;4.63;;;3.00;;
14760;SDS011;7472;45.396;5.272;2022-08-30T15:05:00;7.55;;;3.10;;
14760;SDS011;7472;45.396;5.272;2022-08-30T15:07:29;4.80;;;2.80;;
14760;SDS011;7472;45.396;5.272;2022-08-30T15:09:57;5.75;;;2.63;;
14760;SDS011;7472;45.396;5.272;2022-08-30T15:12:24;3.95;;;2.88;;
14760;SDS011;7472;45.396;5.272;2022-08-30T15:14:51;8.98;;;3.17;;
14760;SDS011;7472;45.396;5.272;2022-08-30T15:17:19;8.25;;;3.25;;
14760;SDS011;7472;45.396;5.272;2022-08-30T15:19:46;7.55;;;2.90;;
14760;SDS011;7472;45.396;5.272;2022-08-30T15:22:13;8.65;;;3.00;;
14760;SDS011;7472;45.396;5.272;2022-08-30T15:24:42;5.55;;;2.95;;
14760;SDS011;7472;45.396;5.272;2022-08-30T15:27:09;7.10;;;2.72;;
14760;SDS011;7472;45.396;5.272;2022-08-30T15:29:37;3.50;;;2.35;;
14760;SDS011;7472;45.396;5.272;2022-08-30T15:32:04;9.75;;;2.40;;